Page, Nebraska
Current Conditions -  °F | °C
As of 1:15 AM on Friday 28 Nov 2014 (Local Time) from KONL Reporting Station
Clear Clear  
Wind Chill: 19°   Ceiling: Unl
Heat Index: 29°   Visibility: 10mi
Dew Point: 21°   Wind: 13mph
Humidity: 72%   Direction: 200°SSW
Pressure: 29.88"   Gusts: NA
Location:  42.4°N, 98.42°W
Report Text: KONL 280715Z AUTO 20011KT 10SM CLR M02/M06 A2988 RMK AO2 T10161060
Loading
Personal Weather Stations






























Interactive Weather Map New forecast layout! Learn more

10-Day Weather Forecast

Advertisements
Track Severe Weather on mobile